Osceola, IA

8:13 PM CST on February 23, 2017 (GMT -0600)
Osceola Municipal

Weather History for KI75 - November, 2011

Change the Weather History Date:

Wednesday, November 16, 2011

  Actual Average (KCNC) Record (KCNC)
Temperature  
Mean Temperature 32 °F -  
Max Temperature 41 °F 50 °F 77 °F (2001)
Min Temperature 23 °F 29 °F 6 °F (1959)
Degree Days  
Heating Degree Days 33    
Moisture  
Dew Point 15 °F    
Average Humidity 51    
Maximum Humidity 80    
Minimum Humidity 26    
Precipitation  
Precipitation 0.00 in - - ()
Sea Level Pressure  
Sea Level Pressure 30.15 in    
Wind  
Wind Speed 7 mph (NW)    
Max Wind Speed 17 mph    
Max Gust Speed 23 mph    
Visibility 10 miles    
Events      
Averages and records for this station are not official NWS values.
T = Trace of Precipitation, MM = Missing Value Source: NWS Daily Summary

Daily Weather History Graph

Daily Weather History Graph

Search for Another Location

Airport or City:

Trip Planner

Search our weather history database for the weather conditions in past years. The results will help you decide how hot, cold, wet, or windy it might be!

Date:

Astronomy

Nov. 16, 2011 Rise Set
Actual Time 7:03 AM CST 4:55 PM CST
Civil Twilight 6:33 AM CST 5:24 PM CST
Nautical Twilight 6:00 AM CST 5:58 PM CST
Astronomical Twilight 5:27 AM CST 6:30 PM CST
Moon 10:10 PM CST (11/16) 11:39 AM CST (11/16)
Length of Visible Light 10h 51m
Length of Day
9h 52m
Waning Gibbous, 70% of the Moon is Illuminated
Nov 16
Waning Gibbous
Nov 18
Last Quarter
Nov 25
New
Dec 2
First Quarter
Dec 10
Full

Hourly Weather History & Observations

Time (CST) Temp. Windchill Dew Point Humidity Pressure Visibility Wind Dir Wind Speed Gust Speed Precip Events Conditions
12:15 AM 32.0 °F 26.4 °F 19.4 °F 60% 30.02 in 10.0 mi North 5.8 mph - N/A   Clear
12:35 AM 30.2 °F 24.3 °F 19.4 °F 64% 30.03 in 10.0 mi NNW 5.8 mph - N/A   Clear
12:55 AM 30.2 °F 24.3 °F 19.4 °F 64% 30.04 in 10.0 mi NW 5.8 mph - N/A   Clear
1:15 AM 32.0 °F 28.7 °F 19.4 °F 60% 30.04 in 10.0 mi WNW 3.5 mph - N/A   Clear
1:35 AM 30.2 °F 25.4 °F 19.4 °F 64% 30.04 in 10.0 mi WNW 4.6 mph - N/A   Clear
1:55 AM 30.2 °F 24.3 °F 19.4 °F 64% 30.04 in 10.0 mi WNW 5.8 mph - N/A   Clear
2:15 AM 30.2 °F 25.4 °F 17.6 °F 60% 30.04 in 10.0 mi NW 4.6 mph - N/A   Clear
2:35 AM 30.2 °F 24.3 °F 17.6 °F 60% 30.05 in 10.0 mi WNW 5.8 mph - N/A   Clear
2:55 AM 30.2 °F 24.3 °F 17.6 °F 60% 30.06 in 10.0 mi West 5.8 mph - N/A   Clear
3:15 AM 26.6 °F 20.0 °F 17.6 °F 69% 30.07 in 10.0 mi West 5.8 mph - N/A   Clear
3:55 AM 26.6 °F 20.0 °F 17.6 °F 69% 30.08 in 10.0 mi West 5.8 mph - N/A   Clear
4:15 AM 26.6 °F 21.2 °F 17.6 °F 69% 30.08 in 10.0 mi West 4.6 mph - N/A   Clear
4:35 AM 26.6 °F 20.0 °F 17.6 °F 69% 30.08 in 10.0 mi West 5.8 mph - N/A   Clear
4:55 AM 26.6 °F 22.6 °F 17.6 °F 69% 30.09 in 10.0 mi West 3.5 mph - N/A   Clear
5:15 AM 26.6 °F 21.2 °F 17.6 °F 69% 30.09 in 10.0 mi West 4.6 mph - N/A   Clear
5:35 AM 26.6 °F 21.2 °F 17.6 °F 69% 30.09 in 10.0 mi WNW 4.6 mph - N/A   Clear
5:55 AM 26.6 °F 21.2 °F 17.6 °F 69% 30.09 in 10.0 mi NW 4.6 mph - N/A   Clear
6:15 AM 24.8 °F 17.9 °F 17.6 °F 74% 30.11 in 10.0 mi WNW 5.8 mph - N/A   Clear
6:35 AM 23.0 °F 17.0 °F 17.6 °F 80% 30.12 in 10.0 mi WNW 4.6 mph - N/A   Clear
6:55 AM 24.8 °F 17.9 °F 17.6 °F 74% 30.13 in 10.0 mi NW 5.8 mph - N/A   Clear
7:15 AM 23.0 °F 17.0 °F 17.6 °F 80% 30.13 in 10.0 mi NW 4.6 mph - N/A   Clear
7:35 AM 24.8 °F 16.9 °F 17.6 °F 74% 30.13 in 10.0 mi NW 6.9 mph - N/A   Clear
7:55 AM 28.4 °F 19.7 °F 19.4 °F 69% 30.14 in 10.0 mi NNW 9.2 mph - N/A   Clear
8:15 AM 30.2 °F 21.9 °F 19.4 °F 64% 30.16 in 10.0 mi NNW 9.2 mph - N/A   Clear
8:35 AM 30.2 °F 22.6 °F 19.4 °F 64% 30.17 in 10.0 mi NNW 8.1 mph - N/A   Clear
8:55 AM 32.0 °F 24.2 °F 19.4 °F 60% 30.18 in 10.0 mi NW 9.2 mph - N/A   Clear
9:15 AM 32.0 °F 23.6 °F 19.4 °F 60% 30.19 in 10.0 mi NW 10.4 mph - N/A   Scattered Clouds
9:35 AM 33.8 °F 25.8 °F 19.4 °F 56% 30.20 in 10.0 mi NNW 10.4 mph - N/A   Clear
10:15 AM 35.6 °F 28.0 °F 15.8 °F 44% 30.21 in 10.0 mi NNW 10.4 mph - N/A   Clear
10:35 AM 35.6 °F 28.0 °F 14.0 °F 41% 30.21 in 10.0 mi NNW 10.4 mph - N/A   Clear
10:55 AM 37.4 °F 29.8 °F 12.2 °F 36% 30.22 in 10.0 mi NNW 11.5 mph 18.4 mph N/A   Clear
11:15 AM 37.4 °F 30.3 °F 12.2 °F 36% 30.22 in 10.0 mi NW 10.4 mph 20.7 mph N/A   Clear
11:35 AM 39.2 °F 31.2 °F 14.0 °F 36% 30.22 in 10.0 mi NNW 13.8 mph - N/A   Clear
11:55 AM 41.0 °F 33.5 °F 12.2 °F 31% 30.22 in 10.0 mi NW 13.8 mph 18.4 mph N/A   Clear
12:15 PM 41.0 °F 32.5 °F 12.2 °F 31% 30.21 in 10.0 mi NNW 17.3 mph 23.0 mph N/A   Clear
12:35 PM 41.0 °F 33.9 °F 10.4 °F 29% 30.21 in 10.0 mi NNW 12.7 mph 20.7 mph N/A   Clear
12:55 PM 41.0 °F 34.3 °F 12.2 °F 31% 30.21 in 10.0 mi North 11.5 mph - N/A   Clear
1:35 PM 41.0 °F 33.9 °F 12.2 °F 31% 30.21 in 10.0 mi NW 12.7 mph 18.4 mph N/A   Clear
1:55 PM 41.0 °F 34.7 °F 10.4 °F 29% 30.20 in 10.0 mi NW 10.4 mph - N/A   Clear
2:15 PM 41.0 °F 35.2 °F 10.4 °F 29% 30.20 in 10.0 mi WNW 9.2 mph 17.3 mph N/A   Clear
2:35 PM 41.0 °F 34.3 °F 10.4 °F 29% 30.20 in 10.0 mi NW 11.5 mph 17.3 mph N/A   Clear
2:55 PM 41.0 °F 36.4 °F 8.6 °F 26% 30.20 in 10.0 mi NW 6.9 mph - N/A   Clear
3:15 PM 41.0 °F 35.2 °F 10.4 °F 29% 30.20 in 10.0 mi NW 9.2 mph - N/A   Clear
3:35 PM 41.0 °F 35.8 °F 10.4 °F 29% 30.21 in 10.0 mi WNW 8.1 mph - N/A   Clear
3:55 PM 41.0 °F 34.7 °F 8.6 °F 26% 30.21 in 10.0 mi WNW 10.4 mph - N/A   Clear
4:15 PM 37.4 °F 32.1 °F 8.6 °F 30% 30.21 in 10.0 mi WNW 6.9 mph - N/A   Clear
4:35 PM 37.4 °F 32.1 °F 8.6 °F 30% 30.21 in 10.0 mi WNW 6.9 mph - N/A   Clear
4:55 PM 33.8 °F 29.6 °F 10.4 °F 38% 30.22 in 10.0 mi West 4.6 mph - N/A   Clear
5:15 PM 33.8 °F 28.6 °F 10.4 °F 38% 30.22 in 10.0 mi West 5.8 mph - N/A   Clear
5:35 PM 32.0 °F 26.4 °F 8.6 °F 38% 30.22 in 10.0 mi West 5.8 mph - N/A   Clear
5:55 PM 32.0 °F 27.5 °F 10.4 °F 41% 30.23 in 10.0 mi WSW 4.6 mph - N/A   Clear
6:15 PM 32.0 °F 26.4 °F 12.2 °F 44% 30.23 in 10.0 mi WSW 5.8 mph - N/A   Scattered Clouds
6:35 PM 32.0 °F 25.6 °F 12.2 °F 44% 30.24 in 10.0 mi WSW 6.9 mph - N/A   Scattered Clouds
6:55 PM 32.0 °F 26.4 °F 12.2 °F 44% 30.24 in 10.0 mi WSW 5.8 mph - N/A   Clear
7:35 PM 28.4 °F 21.2 °F 14.0 °F 55% 30.23 in 10.0 mi SW 6.9 mph - N/A   Clear
7:55 PM 28.4 °F 21.2 °F 14.0 °F 55% 30.23 in 10.0 mi SW 6.9 mph - N/A   Clear
8:15 PM 28.4 °F 22.2 °F 14.0 °F 55% 30.23 in 10.0 mi SW 5.8 mph - N/A   Clear
8:35 PM 28.4 °F 21.2 °F 14.0 °F 55% 30.23 in 10.0 mi WSW 6.9 mph - N/A   Clear
8:55 PM 30.2 °F 22.6 °F 14.0 °F 51% 30.24 in 10.0 mi WSW 8.1 mph - N/A   Clear
9:15 PM 30.2 °F 21.9 °F 14.0 °F 51% 30.25 in 10.0 mi WNW 9.2 mph - N/A   Clear
9:35 PM 30.2 °F 21.9 °F 14.0 °F 51% 30.26 in 10.0 mi West 9.2 mph - N/A   Clear
9:55 PM 30.2 °F 21.3 °F 14.0 °F 51% 30.26 in 10.0 mi WNW 10.4 mph - N/A   Clear
10:15 PM 32.0 °F 23.6 °F 14.0 °F 48% 30.26 in 10.0 mi WNW 10.4 mph - N/A   Mostly Cloudy
10:35 PM 32.0 °F 25.6 °F 14.0 °F 48% 30.26 in 10.0 mi West 6.9 mph - N/A   Overcast
10:55 PM 30.2 °F 22.6 °F 14.0 °F 51% 30.26 in 10.0 mi WNW 8.1 mph - N/A   Scattered Clouds
11:15 PM 30.2 °F 21.9 °F 14.0 °F 51% 30.26 in 10.0 mi WNW 9.2 mph - N/A   Mostly Cloudy
11:55 PM 26.6 °F 19.1 °F 12.2 °F 55% 30.26 in 10.0 mi West 6.9 mph - N/A   Clear